createdAt,value
2022-10-15T00:00:24.671Z,33.93
2022-10-15T00:02:53.030Z,37.50
2022-10-15T00:06:29.634Z,36.73
2022-10-15T00:08:57.879Z,39.30
2022-10-15T00:11:30.009Z,39.80
2022-10-15T00:14:00.504Z,45.50
2022-10-15T00:16:35.275Z,38.50
2022-10-15T00:19:11.334Z,42.03
2022-10-15T00:21:41.523Z,49.57
2022-10-15T00:24:14.108Z,53.33
2022-10-15T00:26:51.325Z,51.40
2022-10-15T00:29:20.928Z,51.90
2022-10-15T00:32:03.895Z,50.00
2022-10-15T00:34:34.309Z,48.67
2022-10-15T00:37:05.623Z,44.97
2022-10-15T00:39:43.995Z,44.33
2022-10-15T00:42:12.514Z,41.60
2022-10-15T00:44:58.654Z,38.77
2022-10-15T00:47:42.259Z,35.10
2022-10-15T00:50:31.768Z,34.20
2022-10-15T00:53:15.863Z,34.47
2022-10-15T00:55:49.951Z,38.13
2022-10-15T00:58:31.008Z,46.30
2022-10-15T01:01:09.064Z,47.87
2022-10-15T01:03:40.418Z,44.00
2022-10-15T01:06:10.293Z,41.20
2022-10-15T01:08:44.203Z,40.80
2022-10-15T01:11:33.035Z,35.83
2022-10-15T01:14:41.375Z,40.70
2022-10-15T01:17:26.807Z,38.90
2022-10-15T01:20:27.429Z,40.80
2022-10-15T01:23:41.987Z,40.07
2022-10-15T01:26:49.964Z,50.93
2022-10-15T01:29:51.093Z,46.53
2022-10-15T01:32:27.528Z,43.87
2022-10-15T01:35:20.279Z,52.63
2022-10-15T01:37:56.099Z,47.40
2022-10-15T01:40:44.204Z,55.50
2022-10-15T01:43:17.756Z,54.47
2022-10-15T01:45:54.787Z,56.97
2022-10-15T01:48:26.499Z,52.07
2022-10-15T01:50:58.249Z,50.90
2022-10-15T01:53:27.369Z,46.37
2022-10-15T01:56:02.279Z,37.70
2022-10-15T01:58:31.139Z,39.53
2022-10-15T02:00:59.660Z,38.97
2022-10-15T02:03:26.916Z,40.43
2022-10-15T02:06:05.529Z,39.07
2022-10-15T02:08:38.410Z,41.50
2022-10-15T02:11:13.208Z,37.93
2022-10-15T02:14:03.878Z,37.93
2022-10-15T02:16:42.090Z,37.73
2022-10-15T02:19:38.269Z,40.27
2022-10-15T02:22:26.958Z,49.10
2022-10-15T02:25:08.974Z,49.27
2022-10-15T02:27:37.769Z,42.97
2022-10-15T02:30:09.077Z,47.27
2022-10-15T02:32:39.114Z,44.97
2022-10-15T02:35:09.725Z,46.63
2022-10-15T02:37:40.025Z,47.53
2022-10-15T02:40:07.554Z,46.43
2022-10-15T02:42:34.729Z,45.63
2022-10-15T02:45:01.781Z,40.33
2022-10-15T02:47:28.889Z,38.53
2022-10-15T02:49:55.938Z,40.37
2022-10-15T02:52:23.200Z,48.43
2022-10-15T02:54:50.388Z,45.53
2022-10-15T02:57:17.484Z,43.07
2022-10-15T02:59:44.548Z,41.83
2022-10-15T03:02:15.334Z,41.40
2022-10-15T03:07:30.468Z,39.87
2022-10-15T03:09:58.888Z,37.10
2022-10-15T03:12:26.313Z,37.10
2022-10-15T03:14:54.509Z,37.50
2022-10-15T03:17:21.924Z,36.23
2022-10-15T03:19:49.293Z,36.23
2022-10-15T03:22:16.373Z,35.17
2022-10-15T03:24:43.484Z,33.83
2022-10-15T03:27:10.640Z,34.23
2022-10-15T03:29:37.674Z,33.67
2022-10-15T03:32:04.895Z,33.47
2022-10-15T03:34:31.951Z,33.00
2022-10-15T03:36:59.143Z,32.70
2022-10-15T03:39:26.296Z,34.67
2022-10-15T03:41:54.049Z,34.13
2022-10-15T03:44:21.494Z,33.30
2022-10-15T03:46:48.578Z,33.80
2022-10-15T03:49:15.875Z,34.47
2022-10-15T03:51:43.130Z,35.13
2022-10-15T03:54:10.121Z,35.37
2022-10-15T03:56:37.699Z,34.73
2022-10-15T03:59:04.739Z,33.83
2022-10-15T04:01:31.935Z,33.30
2022-10-15T04:03:59.127Z,38.17
2022-10-15T04:06:26.168Z,33.70
2022-10-15T04:08:53.491Z,41.03
2022-10-15T04:11:21.234Z,38.83
2022-10-15T04:13:51.529Z,39.30
2022-10-15T04:16:18.613Z,39.40
2022-10-15T04:18:45.779Z,37.90
2022-10-15T04:21:12.954Z,40.47
2022-10-15T04:23:40.056Z,41.03
2022-10-15T04:26:07.591Z,42.30
2022-10-15T04:28:34.752Z,39.33
2022-10-15T04:31:03.036Z,39.83
2022-10-15T04:33:30.105Z,39.70
2022-10-15T04:36:06.314Z,38.77
2022-10-15T04:38:34.132Z,38.50
2022-10-15T04:41:03.826Z,39.37
2022-10-15T04:43:31.939Z,38.27
2022-10-15T04:46:00.394Z,33.57
2022-10-15T04:48:32.424Z,36.83
2022-10-15T04:51:09.454Z,31.93
2022-10-15T04:53:36.610Z,32.83
2022-10-15T04:56:15.581Z,37.30
2022-10-15T04:58:43.141Z,38.60
2022-10-15T05:01:12.729Z,38.77
2022-10-15T05:03:44.881Z,40.43
2022-10-15T05:06:19.451Z,39.30
2022-10-15T05:08:47.435Z,38.37
2022-10-15T05:11:20.845Z,37.67
2022-10-15T05:13:48.023Z,37.77
2022-10-15T05:16:21.212Z,37.63
2022-10-15T05:18:51.494Z,37.20
2022-10-15T05:21:19.691Z,38.67
2022-10-15T05:23:47.539Z,43.53
2022-10-15T05:26:17.894Z,43.47
2022-10-15T05:28:45.023Z,31.43
2022-10-15T05:31:18.549Z,42.80
2022-10-15T05:33:50.493Z,38.23
2022-10-15T05:36:22.278Z,41.03
2022-10-15T05:38:52.338Z,37.27
2022-10-15T05:41:20.519Z,38.60
2022-10-15T05:43:52.048Z,41.70
2022-10-15T05:46:20.300Z,36.63
2022-10-15T05:48:55.404Z,46.47
2022-10-15T05:51:23.173Z,45.37
2022-10-15T05:53:59.249Z,45.73
2022-10-15T05:56:27.455Z,43.33
2022-10-15T05:58:55.768Z,44.67
2022-10-15T06:01:23.268Z,42.63
2022-10-15T06:03:50.344Z,41.20
2022-10-15T06:06:22.968Z,40.50
2022-10-15T06:08:51.248Z,37.73
2022-10-15T06:11:18.388Z,38.07
2022-10-15T06:13:46.454Z,38.43
2022-10-15T06:16:18.040Z,34.70
2022-10-15T06:18:48.153Z,35.83
2022-10-15T06:21:15.280Z,36.53
2022-10-15T06:23:42.308Z,37.97
2022-10-15T06:26:10.887Z,39.10
2022-10-15T06:28:39.285Z,37.50
2022-10-15T06:31:06.958Z,38.23
2022-10-15T06:33:36.077Z,36.67
2022-10-15T06:36:09.129Z,36.73
2022-10-15T06:38:37.094Z,38.53
2022-10-15T06:41:08.229Z,37.40
2022-10-15T06:43:36.323Z,39.60
2022-10-15T06:46:05.418Z,38.80
2022-10-15T06:48:33.209Z,38.80
2022-10-15T06:51:01.503Z,37.10
2022-10-15T06:53:30.131Z,38.70
2022-10-15T06:56:02.468Z,37.17
2022-10-15T06:58:29.966Z,37.40
2022-10-15T07:01:04.774Z,38.43
2022-10-15T07:03:32.463Z,37.73
2022-10-15T07:06:07.662Z,36.50
2022-10-15T07:08:35.747Z,35.97
2022-10-15T07:11:04.379Z,35.20
2022-10-15T07:13:31.726Z,34.20
2022-10-15T07:15:58.787Z,36.17
2022-10-15T07:18:25.925Z,34.80
2022-10-15T07:20:53.265Z,35.00
2022-10-15T07:23:24.075Z,36.13
2022-10-15T07:25:54.268Z,35.27
2022-10-15T07:28:21.634Z,34.27
2022-10-15T07:30:48.828Z,34.63
2022-10-15T07:33:15.854Z,34.17
2022-10-15T07:35:42.969Z,34.13
2022-10-15T07:38:10.128Z,36.40
2022-10-15T07:40:37.177Z,35.83
2022-10-15T07:43:04.233Z,36.60
2022-10-15T07:45:31.316Z,29.57
2022-10-15T07:47:58.294Z,36.73
2022-10-15T07:50:28.125Z,36.87
2022-10-15T07:52:57.746Z,33.13
2022-10-15T07:55:24.718Z,34.67
2022-10-15T07:57:59.998Z,35.00
2022-10-15T08:00:29.884Z,37.00
2022-10-15T08:02:58.433Z,32.40
2022-10-15T08:05:25.600Z,34.80
2022-10-15T08:08:02.700Z,37.20
2022-10-15T08:10:29.988Z,35.83
2022-10-15T08:13:05.962Z,37.17
2022-10-15T08:15:36.488Z,36.60
2022-10-15T08:18:06.060Z,38.37
2022-10-15T08:20:35.148Z,36.60
2022-10-15T08:23:06.227Z,38.80
2022-10-15T08:25:34.292Z,36.53
2022-10-15T08:28:10.683Z,35.33
2022-10-15T08:30:39.871Z,36.47
2022-10-15T08:33:08.298Z,36.87
2022-10-15T08:35:39.962Z,37.60
2022-10-15T08:38:07.046Z,36.70
2022-10-15T08:40:34.329Z,37.37
2022-10-15T08:43:05.523Z,37.90
2022-10-15T08:45:40.064Z,38.57
2022-10-15T08:48:27.918Z,36.13
2022-10-15T08:51:18.324Z,36.20
2022-10-15T08:53:56.478Z,38.30
2022-10-15T08:57:09.209Z,36.97
2022-10-15T08:59:52.869Z,36.57
2022-10-15T09:02:34.645Z,36.57
2022-10-15T09:05:36.363Z,38.33
2022-10-15T09:08:17.510Z,36.13
2022-10-15T09:10:56.771Z,37.03
2022-10-15T09:13:50.713Z,36.77
2022-10-15T09:16:50.748Z,34.70
2022-10-15T09:19:26.260Z,37.17
2022-10-15T09:21:56.674Z,36.77
2022-10-15T09:24:28.804Z,36.07
2022-10-15T09:27:37.223Z,36.73
2022-10-15T09:30:37.390Z,36.43
2022-10-15T09:33:25.269Z,35.83
2022-10-15T09:36:13.333Z,37.13
2022-10-15T09:39:06.308Z,35.75
2022-10-15T09:42:20.350Z,31.63
2022-10-15T09:44:51.540Z,37.33
2022-10-15T09:47:32.568Z,36.60
2022-10-15T09:50:10.336Z,36.93
2022-10-15T09:53:24.495Z,34.50
2022-10-15T09:56:15.004Z,36.92
2022-10-15T09:59:01.969Z,37.65
2022-10-15T10:01:33.434Z,34.50
2022-10-15T10:04:37.944Z,35.58
2022-10-15T10:07:11.490Z,35.28
2022-10-15T10:09:58.788Z,35.85
2022-10-15T10:12:34.724Z,32.97
2022-10-15T10:15:36.902Z,35.28
2022-10-15T10:18:07.646Z,31.00
2022-10-15T10:20:53.187Z,31.67
2022-10-15T10:23:34.237Z,30.77
2022-10-15T10:26:14.483Z,26.65
2022-10-15T10:29:04.964Z,27.52
2022-10-15T10:31:47.889Z,27.80
2022-10-15T10:34:25.044Z,28.83
2022-10-15T10:37:18.106Z,29.67
2022-10-15T10:39:53.803Z,29.27
2022-10-15T10:42:37.053Z,39.70
2022-10-15T10:45:24.200Z,31.60
2022-10-15T10:48:00.768Z,46.17
2022-10-15T10:50:35.647Z,45.03
2022-10-15T10:53:34.172Z,32.53
2022-10-15T10:56:15.384Z,40.67
2022-10-15T10:58:44.873Z,35.87
2022-10-15T11:01:18.825Z,30.45
2022-10-15T11:03:49.638Z,33.67
2022-10-15T11:07:04.627Z,33.83
2022-10-15T11:10:22.238Z,27.80
2022-10-15T11:13:08.028Z,29.45
2022-10-15T11:16:08.161Z,30.02
2022-10-15T11:19:03.527Z,29.38
2022-10-15T11:22:13.830Z,25.25
2022-10-15T11:25:21.419Z,29.90
2022-10-15T11:28:12.219Z,27.92
2022-10-15T11:31:03.967Z,29.50
2022-10-15T11:34:12.520Z,29.83
2022-10-15T11:37:34.467Z,28.23
2022-10-15T11:40:34.961Z,29.20
2022-10-15T11:43:41.083Z,28.77
2022-10-15T11:46:36.948Z,25.60
2022-10-15T11:49:41.650Z,27.92
2022-10-15T11:52:47.163Z,23.10
2022-10-15T11:55:42.583Z,27.55
2022-10-15T11:58:55.917Z,29.67
2022-10-15T12:01:52.648Z,28.42
2022-10-15T12:04:37.026Z,29.35
2022-10-15T12:07:08.618Z,21.80
2022-10-15T12:09:44.029Z,28.95
2022-10-15T12:12:36.909Z,28.23
2022-10-15T12:15:39.144Z,27.85
2022-10-15T12:18:49.348Z,28.88
2022-10-15T12:21:58.108Z,30.27
2022-10-15T12:24:56.049Z,32.17
2022-10-15T12:27:37.229Z,30.80
2022-10-15T12:30:09.644Z,29.48
2022-10-15T12:32:46.604Z,29.60
2022-10-15T12:35:46.308Z,28.77
2022-10-15T12:38:30.125Z,23.23
2022-10-15T12:41:06.907Z,29.85
2022-10-15T12:43:55.844Z,24.20
2022-10-15T12:46:40.003Z,27.98
2022-10-15T12:49:35.083Z,28.92
2022-10-15T12:52:42.592Z,28.58
2022-10-15T12:56:00.259Z,27.75
2022-10-15T12:58:48.807Z,27.52
2022-10-15T13:01:16.937Z,29.05
2022-10-15T13:03:51.271Z,28.10
2022-10-15T13:06:32.203Z,24.77
2022-10-15T13:09:20.363Z,29.75
2022-10-15T13:11:54.325Z,29.23
2022-10-15T13:14:52.692Z,24.65
2022-10-15T13:17:34.312Z,28.25
2022-10-15T13:20:30.422Z,28.80
2022-10-15T13:23:30.057Z,28.90
2022-10-15T13:26:36.035Z,28.20
2022-10-15T13:29:06.392Z,28.17
2022-10-15T13:31:40.908Z,27.17
2022-10-15T13:34:38.624Z,27.58
2022-10-15T13:37:08.238Z,23.42
2022-10-15T13:39:41.788Z,26.48
2022-10-15T13:42:26.695Z,23.48
2022-10-15T13:45:19.392Z,21.63
2022-10-15T13:47:53.816Z,27.40
2022-10-15T13:50:31.758Z,27.58
2022-10-15T13:53:07.482Z,25.52
2022-10-15T13:55:39.395Z,27.15
2022-10-15T13:58:10.349Z,27.35
2022-10-15T14:00:40.481Z,22.40
2022-10-15T14:03:41.035Z,26.40
2022-10-15T14:06:33.698Z,28.83
2022-10-15T14:09:17.514Z,26.40
2022-10-15T14:11:45.859Z,27.98
2022-10-15T14:14:44.123Z,28.60
2022-10-15T14:17:22.848Z,25.98
2022-10-15T14:22:52.059Z,26.58
2022-10-15T14:25:27.859Z,28.60
2022-10-15T14:28:00.564Z,26.52
2022-10-15T14:30:39.639Z,25.67
2022-10-15T14:33:31.808Z,23.70
2022-10-15T14:36:43.907Z,25.85
2022-10-15T14:39:38.793Z,26.65
2022-10-15T14:42:07.749Z,21.48
2022-10-15T14:45:19.843Z,23.98
2022-10-15T14:47:51.568Z,26.95
2022-10-15T14:50:23.705Z,26.95
2022-10-15T14:52:54.923Z,25.63
2022-10-15T14:55:41.274Z,24.73
2022-10-15T14:58:18.964Z,27.70
2022-10-15T15:01:04.147Z,26.70
2022-10-15T15:03:43.224Z,30.45
2022-10-15T15:06:14.123Z,29.30
2022-10-15T15:08:50.084Z,27.17
2022-10-15T15:11:37.743Z,27.42
2022-10-15T15:14:23.647Z,24.95
2022-10-15T15:17:00.687Z,25.25
2022-10-15T15:19:28.769Z,24.23
2022-10-15T15:21:56.974Z,25.13
2022-10-15T15:24:25.418Z,22.80
2022-10-15T15:26:55.949Z,26.50
2022-10-15T15:29:23.209Z,27.83
2022-10-15T15:31:52.044Z,26.75
2022-10-15T15:34:20.503Z,24.15
2022-10-15T15:36:49.008Z,23.80
2022-10-15T15:39:26.149Z,22.40
2022-10-15T15:41:54.358Z,22.17
2022-10-15T15:44:26.478Z,29.63
2022-10-15T15:46:56.217Z,27.70
2022-10-15T15:49:25.707Z,29.27
2022-10-15T15:51:53.923Z,27.35
2022-10-15T15:54:23.568Z,27.50
2022-10-15T15:56:50.660Z,28.95
2022-10-15T15:59:22.154Z,28.92
2022-10-15T16:01:52.503Z,23.73
2022-10-15T16:04:24.266Z,27.23
2022-10-15T16:06:52.424Z,26.57
2022-10-15T16:09:22.913Z,28.67
2022-10-15T16:11:54.103Z,25.10
2022-10-15T16:14:23.153Z,28.33
2022-10-15T16:16:52.963Z,30.45
2022-10-15T16:19:21.983Z,29.87
2022-10-15T16:21:50.233Z,29.50
2022-10-15T16:24:18.728Z,30.50
2022-10-15T16:26:47.967Z,31.65
2022-10-15T16:29:17.763Z,32.60
2022-10-15T16:31:47.448Z,28.63
2022-10-15T16:34:16.075Z,30.43
2022-10-15T16:36:46.565Z,29.43
2022-10-15T16:39:13.571Z,34.90
2022-10-15T16:41:43.910Z,27.77
2022-10-15T16:44:16.138Z,33.77
2022-10-15T16:46:43.653Z,36.47
2022-10-15T16:49:13.359Z,34.00
2022-10-15T16:51:43.676Z,32.87
2022-10-15T16:54:17.878Z,32.80
2022-10-15T16:56:50.542Z,32.03
2022-10-15T16:59:30.352Z,32.13
2022-10-15T17:02:01.468Z,30.90
2022-10-15T17:04:38.691Z,32.20
2022-10-15T17:07:09.203Z,32.57
2022-10-15T17:09:38.608Z,31.83
2022-10-15T17:12:06.938Z,30.20
2022-10-15T17:14:41.679Z,34.47
2022-10-15T17:17:13.967Z,33.50
2022-10-15T17:19:44.784Z,34.80
2022-10-15T17:22:12.848Z,36.83
2022-10-15T17:24:41.252Z,37.70
2022-10-15T17:27:11.515Z,36.47
2022-10-15T17:29:41.599Z,36.37
2022-10-15T17:32:11.068Z,37.10
2022-10-15T17:34:40.469Z,36.97
2022-10-15T17:37:10.622Z,37.60
2022-10-15T17:39:45.037Z,35.97
2022-10-15T17:42:17.489Z,40.23
2022-10-15T17:44:44.704Z,41.07
2022-10-15T17:47:16.878Z,37.83
2022-10-15T17:49:45.238Z,38.40
2022-10-15T17:52:13.869Z,41.90
2022-10-15T17:54:40.848Z,37.33
2022-10-15T17:57:10.548Z,34.33
2022-10-15T17:59:37.604Z,38.60
2022-10-15T18:02:04.779Z,40.03
2022-10-15T18:04:37.309Z,39.03
2022-10-15T18:07:09.144Z,39.47
2022-10-15T18:09:38.959Z,42.13
2022-10-15T18:12:17.889Z,37.53
2022-10-15T18:14:48.469Z,33.30
2022-10-15T18:17:19.948Z,34.73
2022-10-15T18:19:49.334Z,37.43
2022-10-15T18:22:19.165Z,36.17
2022-10-15T18:24:50.427Z,40.50
2022-10-15T18:27:18.973Z,34.40
2022-10-15T18:29:47.573Z,37.47
2022-10-15T18:32:19.863Z,37.70
2022-10-15T18:34:52.283Z,41.13
2022-10-15T18:37:25.314Z,34.37
2022-10-15T18:39:56.779Z,39.23
2022-10-15T18:42:26.704Z,33.70
2022-10-15T18:44:55.301Z,35.53
2022-10-15T18:47:23.338Z,34.87
2022-10-15T18:49:52.268Z,35.77
2022-10-15T18:52:38.772Z,39.87
2022-10-15T18:55:17.929Z,37.77
2022-10-15T18:57:46.673Z,31.73
2022-10-15T19:00:17.224Z,39.13
2022-10-15T19:02:45.313Z,38.20
2022-10-15T19:05:16.383Z,39.80
2022-10-15T19:07:45.639Z,38.97
2022-10-15T19:10:15.352Z,36.67
2022-10-15T19:12:50.273Z,35.33
2022-10-15T19:15:18.390Z,36.63
2022-10-15T19:17:46.960Z,37.33
2022-10-15T19:20:23.008Z,40.43
2022-10-15T19:22:51.773Z,36.80
2022-10-15T19:25:19.895Z,34.90
2022-10-15T19:27:56.780Z,35.07
2022-10-15T19:30:25.343Z,32.30
2022-10-15T19:32:58.050Z,35.60
2022-10-15T19:35:26.747Z,38.00
2022-10-15T19:37:55.095Z,40.90
2022-10-15T19:40:32.342Z,38.53
2022-10-15T19:43:00.867Z,41.20
2022-10-15T19:45:36.384Z,43.77
2022-10-15T19:48:12.914Z,41.33
2022-10-15T19:50:45.919Z,40.57
2022-10-15T19:53:17.439Z,34.10
2022-10-15T19:55:57.112Z,37.13
2022-10-15T19:58:27.696Z,40.23
2022-10-15T20:00:57.477Z,36.57
2022-10-15T20:03:28.103Z,40.00
2022-10-15T20:05:57.598Z,35.83
2022-10-15T20:08:33.889Z,41.57
2022-10-15T20:11:10.278Z,36.63
2022-10-15T20:13:39.143Z,38.53
2022-10-15T20:16:22.987Z,39.93
2022-10-15T20:18:56.344Z,42.47
2022-10-15T20:21:25.308Z,44.47
2022-10-15T20:23:53.963Z,40.13
2022-10-15T20:26:24.122Z,38.97
2022-10-15T20:28:57.136Z,40.33
2022-10-15T20:31:31.447Z,40.67
2022-10-15T20:34:02.294Z,39.47
2022-10-15T20:36:33.044Z,40.10
2022-10-15T20:39:02.181Z,39.83
2022-10-15T20:41:34.449Z,39.57
2022-10-15T20:44:04.068Z,40.17
2022-10-15T20:46:37.363Z,38.93
2022-10-15T20:49:13.421Z,38.57
2022-10-15T20:51:52.889Z,37.73
2022-10-15T20:54:20.709Z,37.87
2022-10-15T20:56:49.938Z,36.37
2022-10-15T20:59:19.343Z,36.10
2022-10-15T21:01:49.660Z,38.67
2022-10-15T21:04:19.520Z,35.90
2022-10-15T21:06:48.235Z,37.70
2022-10-15T21:09:18.798Z,37.53
2022-10-15T21:11:50.717Z,41.70
2022-10-15T21:14:19.383Z,41.03
2022-10-15T21:16:47.968Z,41.70
2022-10-15T21:19:16.592Z,37.80
2022-10-15T21:21:47.301Z,35.40
2022-10-15T21:24:15.761Z,43.50
2022-10-15T21:26:44.307Z,42.87
2022-10-15T21:29:20.157Z,39.00
2022-10-15T21:31:48.841Z,38.77
2022-10-15T21:34:17.623Z,41.80
2022-10-15T21:36:47.899Z,43.47
2022-10-15T21:39:16.982Z,46.80
2022-10-15T21:41:46.402Z,46.83
2022-10-15T21:44:17.067Z,44.53
2022-10-15T21:46:46.760Z,34.53
2022-10-15T21:49:20.897Z,41.33
2022-10-15T21:51:51.097Z,45.60
2022-10-15T21:54:19.519Z,42.10
2022-10-15T21:56:46.524Z,36.90
2022-10-15T21:59:17.727Z,26.70
2022-10-15T22:01:55.706Z,28.80
2022-10-15T22:04:27.483Z,30.23
2022-10-15T22:06:59.627Z,28.87
2022-10-15T22:09:31.372Z,31.63
2022-10-15T22:12:01.765Z,33.30
2022-10-15T22:14:31.885Z,33.20
2022-10-15T22:16:59.672Z,33.73
2022-10-15T22:19:32.346Z,35.37
2022-10-15T22:22:00.862Z,36.23
2022-10-15T22:24:29.738Z,37.63
2022-10-15T22:26:58.547Z,38.07
2022-10-15T22:29:34.575Z,37.57
2022-10-15T22:32:05.417Z,39.60
2022-10-15T22:34:34.563Z,39.70
2022-10-15T22:37:10.506Z,37.60
2022-10-15T22:39:41.257Z,50.83
2022-10-15T22:42:10.853Z,63.03
2022-10-15T22:44:39.297Z,52.37
2022-10-15T22:47:07.812Z,55.40
2022-10-15T22:49:35.543Z,53.03
2022-10-15T22:52:03.750Z,54.87
2022-10-15T22:54:30.947Z,57.00
2022-10-15T22:56:59.147Z,55.03
2022-10-15T22:59:29.747Z,53.80
2022-10-15T23:01:58.952Z,58.87
2022-10-15T23:04:27.408Z,55.87
2022-10-15T23:06:56.829Z,47.23
2022-10-15T23:09:26.697Z,58.17
2022-10-15T23:12:03.864Z,50.30
2022-10-15T23:14:41.077Z,58.73
2022-10-15T23:17:12.670Z,61.23
2022-10-15T23:19:43.682Z,47.67
2022-10-15T23:22:14.353Z,58.27
2022-10-15T23:24:42.738Z,60.20
2022-10-15T23:27:13.567Z,60.40
2022-10-15T23:29:44.203Z,57.70
2022-10-15T23:32:22.588Z,50.43
2022-10-15T23:34:50.858Z,53.87
2022-10-15T23:37:29.388Z,51.73
2022-10-15T23:39:59.237Z,53.23
2022-10-15T23:42:26.404Z,50.10
2022-10-15T23:44:54.539Z,50.93
2022-10-15T23:47:21.562Z,52.57
2022-10-15T23:49:51.327Z,48.57
2022-10-15T23:52:19.949Z,46.80
2022-10-15T23:54:52.842Z,46.07
2022-10-15T23:57:31.449Z,47.50
